sensor_id;sensor_type;location;lat;lon;timestamp;P1;durP1;ratioP1;P2;durP2;ratioP2
44145;SDS011;29809;52.432;4.780;2024-01-30T00:01:56;5.28;;;4.78;;
44145;SDS011;29809;52.432;4.780;2024-01-30T00:04:21;5.65;;;5.15;;
44145;SDS011;29809;52.432;4.780;2024-01-30T00:06:47;5.30;;;4.90;;
44145;SDS011;29809;52.432;4.780;2024-01-30T00:09:12;4.90;;;4.50;;
44145;SDS011;29809;52.432;4.780;2024-01-30T00:11:37;5.07;;;4.63;;
44145;SDS011;29809;52.432;4.780;2024-01-30T00:14:03;4.88;;;4.47;;
44145;SDS011;29809;52.432;4.780;2024-01-30T00:16:28;5.07;;;4.57;;
44145;SDS011;29809;52.432;4.780;2024-01-30T00:18:54;5.18;;;4.78;;
44145;SDS011;29809;52.432;4.780;2024-01-30T00:21:19;4.85;;;4.45;;
44145;SDS011;29809;52.432;4.780;2024-01-30T00:23:45;4.80;;;4.40;;
44145;SDS011;29809;52.432;4.780;2024-01-30T00:26:10;5.28;;;4.78;;
44145;SDS011;29809;52.432;4.780;2024-01-30T00:28:36;4.63;;;4.20;;
44145;SDS011;29809;52.432;4.780;2024-01-30T00:31:01;4.85;;;4.45;;
44145;SDS011;29809;52.432;4.780;2024-01-30T00:33:27;4.82;;;4.38;;
44145;SDS011;29809;52.432;4.780;2024-01-30T00:35:52;4.70;;;4.30;;
44145;SDS011;29809;52.432;4.780;2024-01-30T00:38:17;5.80;;;5.30;;
44145;SDS011;29809;52.432;4.780;2024-01-30T00:40:42;5.40;;;4.90;;
44145;SDS011;29809;52.432;4.780;2024-01-30T00:43:08;4.82;;;4.43;;
44145;SDS011;29809;52.432;4.780;2024-01-30T00:45:33;4.75;;;4.35;;
44145;SDS011;29809;52.432;4.780;2024-01-30T00:47:58;5.18;;;4.68;;
44145;SDS011;29809;52.432;4.780;2024-01-30T00:50:23;4.80;;;4.40;;
44145;SDS011;29809;52.432;4.780;2024-01-30T00:52:49;5.07;;;4.65;;
44145;SDS011;29809;52.432;4.780;2024-01-30T00:55:14;4.93;;;4.38;;
44145;SDS011;29809;52.432;4.780;2024-01-30T00:57:39;4.93;;;4.32;;
44145;SDS011;29809;52.432;4.780;2024-01-30T01:00:05;5.30;;;4.55;;
44145;SDS011;29809;52.432;4.780;2024-01-30T01:02:31;4.63;;;4.15;;
44145;SDS011;29809;52.432;4.780;2024-01-30T01:04:56;7.15;;;4.40;;
44145;SDS011;29809;52.432;4.780;2024-01-30T01:07:21;4.43;;;3.90;;
44145;SDS011;29809;52.432;4.780;2024-01-30T01:09:47;5.25;;;4.35;;
44145;SDS011;29809;52.432;4.780;2024-01-30T01:12:12;5.10;;;4.70;;
44145;SDS011;29809;52.432;4.780;2024-01-30T01:14:38;4.95;;;4.53;;
44145;SDS011;29809;52.432;4.780;2024-01-30T01:17:03;5.22;;;4.72;;
44145;SDS011;29809;52.432;4.780;2024-01-30T01:19:28;5.13;;;4.63;;
44145;SDS011;29809;52.432;4.780;2024-01-30T01:21:53;6.30;;;4.72;;
44145;SDS011;29809;52.432;4.780;2024-01-30T01:24:19;5.43;;;4.93;;
44145;SDS011;29809;52.432;4.780;2024-01-30T01:26:44;4.47;;;4.07;;
44145;SDS011;29809;52.432;4.780;2024-01-30T01:29:09;5.00;;;4.60;;
44145;SDS011;29809;52.432;4.780;2024-01-30T01:31:36;5.90;;;4.97;;
44145;SDS011;29809;52.432;4.780;2024-01-30T01:34:08;5.30;;;4.80;;
44145;SDS011;29809;52.432;4.780;2024-01-30T01:36:33;4.43;;;4.00;;
44145;SDS011;29809;52.432;4.780;2024-01-30T01:38:58;5.70;;;5.10;;
44145;SDS011;29809;52.432;4.780;2024-01-30T01:41:24;4.50;;;4.05;;
44145;SDS011;29809;52.432;4.780;2024-01-30T01:43:49;4.57;;;4.28;;
44145;SDS011;29809;52.432;4.780;2024-01-30T01:46:14;6.13;;;4.40;;
44145;SDS011;29809;52.432;4.780;2024-01-30T01:48:40;4.50;;;4.10;;
44145;SDS011;29809;52.432;4.780;2024-01-30T01:51:06;5.22;;;3.70;;
44145;SDS011;29809;52.432;4.780;2024-01-30T01:53:31;5.25;;;4.40;;
44145;SDS011;29809;52.432;4.780;2024-01-30T01:55:57;4.90;;;4.38;;
44145;SDS011;29809;52.432;4.780;2024-01-30T01:58:22;4.15;;;3.75;;
44145;SDS011;29809;52.432;4.780;2024-01-30T02:00:48;4.15;;;3.75;;
44145;SDS011;29809;52.432;4.780;2024-01-30T02:03:14;4.60;;;4.20;;
44145;SDS011;29809;52.432;4.780;2024-01-30T02:05:40;4.70;;;4.25;;
44145;SDS011;29809;52.432;4.780;2024-01-30T02:08:06;4.82;;;4.43;;
44145;SDS011;29809;52.432;4.780;2024-01-30T02:10:31;6.50;;;4.40;;
44145;SDS011;29809;52.432;4.780;2024-01-30T02:12:57;4.78;;;4.38;;
44145;SDS011;29809;52.432;4.780;2024-01-30T02:15:22;4.50;;;4.10;;
44145;SDS011;29809;52.432;4.780;2024-01-30T02:17:47;6.53;;;4.35;;
44145;SDS011;29809;52.432;4.780;2024-01-30T02:20:12;4.57;;;4.18;;
44145;SDS011;29809;52.432;4.780;2024-01-30T02:22:38;5.45;;;4.30;;
44145;SDS011;29809;52.432;4.780;2024-01-30T02:25:05;4.55;;;4.15;;
44145;SDS011;29809;52.432;4.780;2024-01-30T02:27:30;6.07;;;4.28;;
44145;SDS011;29809;52.432;4.780;2024-01-30T02:29:55;5.13;;;4.63;;
44145;SDS011;29809;52.432;4.780;2024-01-30T02:32:20;4.70;;;4.30;;
44145;SDS011;29809;52.432;4.780;2024-01-30T02:34:46;4.88;;;4.18;;
44145;SDS011;29809;52.432;4.780;2024-01-30T02:37:11;9.00;;;4.93;;
44145;SDS011;29809;52.432;4.780;2024-01-30T02:39:36;4.38;;;4.05;;
44145;SDS011;29809;52.432;4.780;2024-01-30T02:42:01;5.20;;;4.78;;
44145;SDS011;29809;52.432;4.780;2024-01-30T02:44:27;4.07;;;3.78;;
44145;SDS011;29809;52.432;4.780;2024-01-30T02:46:52;4.50;;;4.10;;
44145;SDS011;29809;52.432;4.780;2024-01-30T02:49:19;4.50;;;4.10;;
44145;SDS011;29809;52.432;4.780;2024-01-30T02:51:44;5.68;;;4.25;;
44145;SDS011;29809;52.432;4.780;2024-01-30T02:54:09;4.55;;;4.15;;
44145;SDS011;29809;52.432;4.780;2024-01-30T02:56:34;4.78;;;4.25;;
44145;SDS011;29809;52.432;4.780;2024-01-30T02:59:00;5.15;;;4.75;;
44145;SDS011;29809;52.432;4.780;2024-01-30T03:01:25;4.15;;;3.72;;
44145;SDS011;29809;52.432;4.780;2024-01-30T03:03:50;4.25;;;3.85;;
44145;SDS011;29809;52.432;4.780;2024-01-30T03:06:16;4.20;;;3.80;;
44145;SDS011;29809;52.432;4.780;2024-01-30T03:08:42;4.47;;;3.92;;
44145;SDS011;29809;52.432;4.780;2024-01-30T03:11:07;4.80;;;3.78;;
44145;SDS011;29809;52.432;4.780;2024-01-30T03:13:33;4.45;;;4.00;;
44145;SDS011;29809;52.432;4.780;2024-01-30T03:15:58;5.07;;;3.50;;
44145;SDS011;29809;52.432;4.780;2024-01-30T03:18:23;4.22;;;3.83;;
44145;SDS011;29809;52.432;4.780;2024-01-30T03:20:48;3.88;;;3.58;;
44145;SDS011;29809;52.432;4.780;2024-01-30T03:23:13;4.03;;;3.72;;
44145;SDS011;29809;52.432;4.780;2024-01-30T03:25:39;4.53;;;4.13;;
44145;SDS011;29809;52.432;4.780;2024-01-30T03:28:04;5.57;;;3.30;;
44145;SDS011;29809;52.432;4.780;2024-01-30T03:30:29;4.35;;;3.95;;
44145;SDS011;29809;52.432;4.780;2024-01-30T03:32:55;4.03;;;3.63;;
44145;SDS011;29809;52.432;4.780;2024-01-30T03:35:20;4.07;;;3.70;;
44145;SDS011;29809;52.432;4.780;2024-01-30T03:37:45;4.07;;;3.70;;
44145;SDS011;29809;52.432;4.780;2024-01-30T03:40:10;4.40;;;4.00;;
44145;SDS011;29809;52.432;4.780;2024-01-30T03:42:36;3.75;;;3.45;;
44145;SDS011;29809;52.432;4.780;2024-01-30T03:45:01;4.28;;;3.88;;
44145;SDS011;29809;52.432;4.780;2024-01-30T03:47:27;4.10;;;3.78;;
44145;SDS011;29809;52.432;4.780;2024-01-30T03:49:52;3.90;;;3.60;;
44145;SDS011;29809;52.432;4.780;2024-01-30T03:52:17;4.35;;;3.95;;
44145;SDS011;29809;52.432;4.780;2024-01-30T03:54:43;3.85;;;3.47;;
44145;SDS011;29809;52.432;4.780;2024-01-30T03:57:08;3.95;;;3.60;;
44145;SDS011;29809;52.432;4.780;2024-01-30T03:59:33;4.28;;;3.60;;
44145;SDS011;29809;52.432;4.780;2024-01-30T04:01:59;3.72;;;3.33;;
44145;SDS011;29809;52.432;4.780;2024-01-30T04:04:24;4.47;;;4.07;;
44145;SDS011;29809;52.432;4.780;2024-01-30T04:06:50;4.15;;;3.75;;
44145;SDS011;29809;52.432;4.780;2024-01-30T04:09:15;4.32;;;3.92;;
44145;SDS011;29809;52.432;4.780;2024-01-30T04:11:40;4.18;;;3.88;;
44145;SDS011;29809;52.432;4.780;2024-01-30T04:14:06;3.88;;;3.58;;
44145;SDS011;29809;52.432;4.780;2024-01-30T04:16:31;4.05;;;3.75;;
44145;SDS011;29809;52.432;4.780;2024-01-30T04:18:57;3.78;;;3.45;;
44145;SDS011;29809;52.432;4.780;2024-01-30T04:21:22;3.97;;;3.67;;
44145;SDS011;29809;52.432;4.780;2024-01-30T04:23:48;3.97;;;3.58;;
44145;SDS011;29809;52.432;4.780;2024-01-30T04:26:13;4.38;;;4.07;;
44145;SDS011;29809;52.432;4.780;2024-01-30T04:28:40;3.90;;;3.60;;
44145;SDS011;29809;52.432;4.780;2024-01-30T04:31:06;4.30;;;3.90;;
44145;SDS011;29809;52.432;4.780;2024-01-30T04:33:31;5.40;;;4.32;;
44145;SDS011;29809;52.432;4.780;2024-01-30T04:35:56;4.15;;;3.80;;
44145;SDS011;29809;52.432;4.780;2024-01-30T04:38:21;4.00;;;3.70;;
44145;SDS011;29809;52.432;4.780;2024-01-30T04:40:47;4.60;;;4.20;;
44145;SDS011;29809;52.432;4.780;2024-01-30T04:43:12;4.68;;;4.28;;
44145;SDS011;29809;52.432;4.780;2024-01-30T04:45:37;3.88;;;3.58;;
44145;SDS011;29809;52.432;4.780;2024-01-30T04:48:02;5.53;;;3.85;;
44145;SDS011;29809;52.432;4.780;2024-01-30T04:50:28;3.47;;;3.17;;
44145;SDS011;29809;52.432;4.780;2024-01-30T04:52:53;4.32;;;3.70;;
44145;SDS011;29809;52.432;4.780;2024-01-30T04:55:18;3.75;;;3.45;;
44145;SDS011;29809;52.432;4.780;2024-01-30T04:57:44;4.13;;;3.72;;
44145;SDS011;29809;52.432;4.780;2024-01-30T05:00:09;3.92;;;3.63;;
44145;SDS011;29809;52.432;4.780;2024-01-30T05:02:34;3.58;;;3.30;;
44145;SDS011;29809;52.432;4.780;2024-01-30T05:05:00;3.95;;;3.55;;
44145;SDS011;29809;52.432;4.780;2024-01-30T05:07:25;3.67;;;3.38;;
44145;SDS011;29809;52.432;4.780;2024-01-30T05:09:50;3.78;;;3.47;;
44145;SDS011;29809;52.432;4.780;2024-01-30T05:12:16;4.15;;;3.85;;
44145;SDS011;29809;52.432;4.780;2024-01-30T05:14:41;6.22;;;3.97;;
44145;SDS011;29809;52.432;4.780;2024-01-30T05:17:06;3.40;;;3.20;;
44145;SDS011;29809;52.432;4.780;2024-01-30T05:19:33;4.00;;;3.70;;
44145;SDS011;29809;52.432;4.780;2024-01-30T05:21:58;4.10;;;3.80;;
44145;SDS011;29809;52.432;4.780;2024-01-30T05:24:23;4.55;;;3.67;;
44145;SDS011;29809;52.432;4.780;2024-01-30T05:26:49;5.25;;;4.22;;
44145;SDS011;29809;52.432;4.780;2024-01-30T05:29:16;4.53;;;3.88;;
44145;SDS011;29809;52.432;4.780;2024-01-30T05:31:41;4.28;;;3.88;;
44145;SDS011;29809;52.432;4.780;2024-01-30T05:34:06;3.92;;;3.53;;
44145;SDS011;29809;52.432;4.780;2024-01-30T05:36:31;4.38;;;3.63;;
44145;SDS011;29809;52.432;4.780;2024-01-30T05:38:57;4.53;;;3.88;;
44145;SDS011;29809;52.432;4.780;2024-01-30T05:41:22;4.28;;;3.88;;
44145;SDS011;29809;52.432;4.780;2024-01-30T05:43:47;4.10;;;3.70;;
44145;SDS011;29809;52.432;4.780;2024-01-30T05:46:13;4.90;;;3.83;;
44145;SDS011;29809;52.432;4.780;2024-01-30T05:48:38;4.80;;;3.85;;
44145;SDS011;29809;52.432;4.780;2024-01-30T05:51:03;4.40;;;3.78;;
44145;SDS011;29809;52.432;4.780;2024-01-30T05:53:29;5.50;;;3.53;;
44145;SDS011;29809;52.432;4.780;2024-01-30T05:55:54;4.60;;;3.75;;
44145;SDS011;29809;52.432;4.780;2024-01-30T05:58:19;4.97;;;3.85;;
44145;SDS011;29809;52.432;4.780;2024-01-30T06:00:44;4.00;;;3.70;;
44145;SDS011;29809;52.432;4.780;2024-01-30T06:03:10;4.85;;;4.20;;
44145;SDS011;29809;52.432;4.780;2024-01-30T06:05:35;3.88;;;3.28;;
44145;SDS011;29809;52.432;4.780;2024-01-30T06:08:00;4.75;;;3.13;;
44145;SDS011;29809;52.432;4.780;2024-01-30T06:10:25;4.85;;;3.47;;
44145;SDS011;29809;52.432;4.780;2024-01-30T06:12:51;3.40;;;3.13;;
44145;SDS011;29809;52.432;4.780;2024-01-30T06:15:16;63.83;;;15.95;;
44145;SDS011;29809;52.432;4.780;2024-01-30T06:17:41;67.95;;;22.58;;
44145;SDS011;29809;52.432;4.780;2024-01-30T06:20:07;53.30;;;18.88;;
44145;SDS011;29809;52.432;4.780;2024-01-30T06:22:32;56.80;;;18.23;;
44145;SDS011;29809;52.432;4.780;2024-01-30T06:24:57;41.70;;;16.63;;
44145;SDS011;29809;52.432;4.780;2024-01-30T06:27:22;46.80;;;15.35;;
44145;SDS011;29809;52.432;4.780;2024-01-30T06:29:48;38.08;;;14.50;;
44145;SDS011;29809;52.432;4.780;2024-01-30T06:32:13;39.03;;;15.13;;
44145;SDS011;29809;52.432;4.780;2024-01-30T06:34:38;30.85;;;13.73;;
44145;SDS011;29809;52.432;4.780;2024-01-30T06:37:05;34.17;;;12.57;;
44145;SDS011;29809;52.432;4.780;2024-01-30T06:39:30;33.42;;;13.40;;
44145;SDS011;29809;52.432;4.780;2024-01-30T06:41:55;25.15;;;11.60;;
44145;SDS011;29809;52.432;4.780;2024-01-30T06:44:20;32.72;;;12.43;;
44145;SDS011;29809;52.432;4.780;2024-01-30T06:46:46;19.17;;;9.25;;
44145;SDS011;29809;52.432;4.780;2024-01-30T06:49:11;24.13;;;9.30;;
44145;SDS011;29809;52.432;4.780;2024-01-30T06:51:37;16.50;;;8.80;;
44145;SDS011;29809;52.432;4.780;2024-01-30T06:54:02;18.25;;;8.43;;
44145;SDS011;29809;52.432;4.780;2024-01-30T06:56:27;16.90;;;8.32;;
44145;SDS011;29809;52.432;4.780;2024-01-30T06:58:53;15.95;;;8.73;;
44145;SDS011;29809;52.432;4.780;2024-01-30T07:01:18;17.92;;;7.65;;
44145;SDS011;29809;52.432;4.780;2024-01-30T07:03:43;14.45;;;7.15;;
44145;SDS011;29809;52.432;4.780;2024-01-30T07:06:09;13.57;;;6.78;;
44145;SDS011;29809;52.432;4.780;2024-01-30T07:08:35;15.85;;;8.07;;
44145;SDS011;29809;52.432;4.780;2024-01-30T07:11:02;14.45;;;7.07;;
44145;SDS011;29809;52.432;4.780;2024-01-30T07:13:27;11.10;;;6.97;;
44145;SDS011;29809;52.432;4.780;2024-01-30T07:15:53;11.68;;;7.50;;
44145;SDS011;29809;52.432;4.780;2024-01-30T07:18:18;15.55;;;7.35;;
44145;SDS011;29809;52.432;4.780;2024-01-30T07:20:44;11.77;;;6.78;;
44145;SDS011;29809;52.432;4.780;2024-01-30T07:23:12;10.65;;;6.63;;
44145;SDS011;29809;52.432;4.780;2024-01-30T07:25:39;9.38;;;5.97;;
44145;SDS011;29809;52.432;4.780;2024-01-30T07:28:06;12.98;;;6.20;;
44145;SDS011;29809;52.432;4.780;2024-01-30T07:30:31;9.27;;;6.20;;
44145;SDS011;29809;52.432;4.780;2024-01-30T07:32:57;7.82;;;5.70;;
44145;SDS011;29809;52.432;4.780;2024-01-30T07:35:22;10.88;;;6.75;;
44145;SDS011;29809;52.432;4.780;2024-01-30T07:37:47;7.10;;;6.00;;
44145;SDS011;29809;52.432;4.780;2024-01-30T07:40:12;10.80;;;5.65;;
44145;SDS011;29809;52.432;4.780;2024-01-30T07:42:38;7.68;;;5.78;;
44145;SDS011;29809;52.432;4.780;2024-01-30T07:45:03;9.13;;;6.10;;
44145;SDS011;29809;52.432;4.780;2024-01-30T07:47:28;8.57;;;5.95;;
44145;SDS011;29809;52.432;4.780;2024-01-30T07:49:53;7.50;;;5.40;;
44145;SDS011;29809;52.432;4.780;2024-01-30T07:52:19;9.40;;;5.75;;
44145;SDS011;29809;52.432;4.780;2024-01-30T07:54:47;6.97;;;5.55;;
44145;SDS011;29809;52.432;4.780;2024-01-30T07:57:12;6.88;;;5.15;;
44145;SDS011;29809;52.432;4.780;2024-01-30T07:59:38;7.07;;;4.80;;
44145;SDS011;29809;52.432;4.780;2024-01-30T08:02:03;9.15;;;5.85;;
44145;SDS011;29809;52.432;4.780;2024-01-30T08:04:28;6.07;;;5.35;;
44145;SDS011;29809;52.432;4.780;2024-01-30T08:06:53;6.93;;;5.20;;
44145;SDS011;29809;52.432;4.780;2024-01-30T08:09:19;6.00;;;5.40;;
44145;SDS011;29809;52.432;4.780;2024-01-30T08:11:44;7.78;;;5.00;;
44145;SDS011;29809;52.432;4.780;2024-01-30T08:14:09;5.68;;;4.93;;
44145;SDS011;29809;52.432;4.780;2024-01-30T08:16:34;5.32;;;4.78;;
44145;SDS011;29809;52.432;4.780;2024-01-30T08:19:00;6.38;;;5.05;;
44145;SDS011;29809;52.432;4.780;2024-01-30T08:21:26;7.78;;;5.03;;
44145;SDS011;29809;52.432;4.780;2024-01-30T08:23:51;6.05;;;5.07;;
44145;SDS011;29809;52.432;4.780;2024-01-30T08:26:17;6.32;;;4.70;;
44145;SDS011;29809;52.432;4.780;2024-01-30T08:28:42;5.57;;;5.00;;
44145;SDS011;29809;52.432;4.780;2024-01-30T08:31:09;10.52;;;4.75;;
44145;SDS011;29809;52.432;4.780;2024-01-30T08:33:35;9.23;;;5.38;;
44145;SDS011;29809;52.432;4.780;2024-01-30T08:36:00;5.55;;;4.78;;
44145;SDS011;29809;52.432;4.780;2024-01-30T08:38:25;6.97;;;4.50;;
44145;SDS011;29809;52.432;4.780;2024-01-30T08:40:51;6.03;;;4.50;;
44145;SDS011;29809;52.432;4.780;2024-01-30T08:43:16;6.95;;;5.10;;
44145;SDS011;29809;52.432;4.780;2024-01-30T08:45:41;7.88;;;5.30;;
44145;SDS011;29809;52.432;4.780;2024-01-30T08:48:07;5.95;;;4.75;;
44145;SDS011;29809;52.432;4.780;2024-01-30T08:50:33;4.93;;;4.38;;
44145;SDS011;29809;52.432;4.780;2024-01-30T08:52:58;4.60;;;4.18;;
44145;SDS011;29809;52.432;4.780;2024-01-30T08:55:23;5.32;;;4.80;;
44145;SDS011;29809;52.432;4.780;2024-01-30T08:57:48;7.22;;;5.03;;
44145;SDS011;29809;52.432;4.780;2024-01-30T09:00:14;8.00;;;5.13;;
44145;SDS011;29809;52.432;4.780;2024-01-30T09:02:39;6.05;;;5.03;;
44145;SDS011;29809;52.432;4.780;2024-01-30T09:05:04;6.65;;;4.50;;
44145;SDS011;29809;52.432;4.780;2024-01-30T09:07:30;6.00;;;4.75;;
44145;SDS011;29809;52.432;4.780;2024-01-30T09:09:55;6.90;;;4.30;;
44145;SDS011;29809;52.432;4.780;2024-01-30T09:12:20;8.80;;;4.85;;
44145;SDS011;29809;52.432;4.780;2024-01-30T09:14:45;4.75;;;4.20;;
44145;SDS011;29809;52.432;4.780;2024-01-30T09:17:11;7.15;;;4.28;;
44145;SDS011;29809;52.432;4.780;2024-01-30T09:19:36;6.07;;;3.80;;
44145;SDS011;29809;52.432;4.780;2024-01-30T09:22:02;6.55;;;3.85;;
44145;SDS011;29809;52.432;4.780;2024-01-30T09:24:27;6.50;;;3.58;;
44145;SDS011;29809;52.432;4.780;2024-01-30T09:26:53;11.52;;;3.70;;
44145;SDS011;29809;52.432;4.780;2024-01-30T09:29:18;7.38;;;4.10;;
44145;SDS011;29809;52.432;4.780;2024-01-30T09:31:44;5.28;;;3.05;;
44145;SDS011;29809;52.432;4.780;2024-01-30T09:34:09;7.75;;;3.30;;
44145;SDS011;29809;52.432;4.780;2024-01-30T09:36:35;7.45;;;3.10;;
44145;SDS011;29809;52.432;4.780;2024-01-30T09:39:00;8.23;;;3.70;;
44145;SDS011;29809;52.432;4.780;2024-01-30T09:41:25;9.20;;;3.70;;
44145;SDS011;29809;52.432;4.780;2024-01-30T09:43:52;5.20;;;2.80;;
44145;SDS011;29809;52.432;4.780;2024-01-30T09:46:19;8.00;;;3.13;;
44145;SDS011;29809;52.432;4.780;2024-01-30T09:48:46;7.63;;;2.75;;
44145;SDS011;29809;52.432;4.780;2024-01-30T09:51:14;7.60;;;2.92;;
44145;SDS011;29809;52.432;4.780;2024-01-30T09:53:39;7.18;;;3.05;;
44145;SDS011;29809;52.432;4.780;2024-01-30T09:56:05;5.10;;;2.45;;
44145;SDS011;29809;52.432;4.780;2024-01-30T09:58:30;6.43;;;2.40;;
44145;SDS011;29809;52.432;4.780;2024-01-30T10:00:55;7.78;;;2.72;;
44145;SDS011;29809;52.432;4.780;2024-01-30T10:03:20;6.63;;;2.40;;
44145;SDS011;29809;52.432;4.780;2024-01-30T10:05:50;6.75;;;2.40;;
44145;SDS011;29809;52.432;4.780;2024-01-30T10:08:16;6.85;;;2.80;;
44145;SDS011;29809;52.432;4.780;2024-01-30T10:10:45;5.38;;;2.28;;
44145;SDS011;29809;52.432;4.780;2024-01-30T10:13:10;4.95;;;2.45;;
44145;SDS011;29809;52.432;4.780;2024-01-30T10:15:36;6.38;;;2.25;;
44145;SDS011;29809;52.432;4.780;2024-01-30T10:18:04;7.55;;;2.85;;
44145;SDS011;29809;52.432;4.780;2024-01-30T10:20:31;5.68;;;2.55;;
44145;SDS011;29809;52.432;4.780;2024-01-30T10:22:57;3.30;;;2.05;;
44145;SDS011;29809;52.432;4.780;2024-01-30T10:25:22;7.60;;;2.33;;
44145;SDS011;29809;52.432;4.780;2024-01-30T10:27:52;8.45;;;2.50;;
44145;SDS011;29809;52.432;4.780;2024-01-30T10:30:18;5.00;;;2.00;;
44145;SDS011;29809;52.432;4.780;2024-01-30T10:32:43;5.10;;;2.60;;
44145;SDS011;29809;52.432;4.780;2024-01-30T10:35:09;6.28;;;2.00;;
44145;SDS011;29809;52.432;4.780;2024-01-30T10:37:34;2.88;;;1.80;;
44145;SDS011;29809;52.432;4.780;2024-01-30T10:40:02;5.03;;;2.25;;
44145;SDS011;29809;52.432;4.780;2024-01-30T10:42:28;6.95;;;2.20;;
44145;SDS011;29809;52.432;4.780;2024-01-30T10:44:57;4.25;;;2.10;;
44145;SDS011;29809;52.432;4.780;2024-01-30T10:47:28;7.35;;;2.40;;
44145;SDS011;29809;52.432;4.780;2024-01-30T10:49:54;4.10;;;1.65;;
44145;SDS011;29809;52.432;4.780;2024-01-30T10:52:19;4.65;;;2.00;;
44145;SDS011;29809;52.432;4.780;2024-01-30T10:54:45;2.83;;;1.60;;
44145;SDS011;29809;52.432;4.780;2024-01-30T10:57:11;4.32;;;1.75;;
44145;SDS011;29809;52.432;4.780;2024-01-30T10:59:37;5.13;;;1.70;;
44145;SDS011;29809;52.432;4.780;2024-01-30T11:02:03;4.50;;;1.67;;
44145;SDS011;29809;52.432;4.780;2024-01-30T11:04:35;2.80;;;1.65;;
44145;SDS011;29809;52.432;4.780;2024-01-30T11:07:00;3.17;;;1.83;;
44145;SDS011;29809;52.432;4.780;2024-01-30T11:09:28;4.38;;;1.50;;
44145;SDS011;29809;52.432;4.780;2024-01-30T11:11:57;2.60;;;1.45;;
44145;SDS011;29809;52.432;4.780;2024-01-30T11:14:26;3.75;;;1.50;;
44145;SDS011;29809;52.432;4.780;2024-01-30T11:16:52;3.38;;;1.55;;
44145;SDS011;29809;52.432;4.780;2024-01-30T11:19:24;2.92;;;1.50;;
44145;SDS011;29809;52.432;4.780;2024-01-30T11:21:53;4.72;;;1.83;;
44145;SDS011;29809;52.432;4.780;2024-01-30T11:24:24;4.15;;;1.60;;
44145;SDS011;29809;52.432;4.780;2024-01-30T11:26:55;2.45;;;1.02;;
44145;SDS011;29809;52.432;4.780;2024-01-30T11:29:23;4.05;;;1.40;;
44145;SDS011;29809;52.432;4.780;2024-01-30T11:31:53;2.97;;;1.20;;
44145;SDS011;29809;52.432;4.780;2024-01-30T11:34:18;6.40;;;1.67;;
44145;SDS011;29809;52.432;4.780;2024-01-30T11:36:44;1.55;;;1.15;;
44145;SDS011;29809;52.432;4.780;2024-01-30T11:39:11;6.47;;;1.98;;
44145;SDS011;29809;52.432;4.780;2024-01-30T11:41:37;3.63;;;1.45;;
44145;SDS011;29809;52.432;4.780;2024-01-30T11:44:03;2.05;;;1.40;;
44145;SDS011;29809;52.432;4.780;2024-01-30T11:46:28;4.68;;;1.58;;
44145;SDS011;29809;52.432;4.780;2024-01-30T11:48:54;4.20;;;1.52;;
44145;SDS011;29809;52.432;4.780;2024-01-30T11:51:19;5.93;;;1.42;;
44145;SDS011;29809;52.432;4.780;2024-01-30T11:53:45;2.88;;;1.40;;
44145;SDS011;29809;52.432;4.780;2024-01-30T11:56:14;3.22;;;1.58;;
44145;SDS011;29809;52.432;4.780;2024-01-30T11:58:42;3.92;;;1.40;;
44145;SDS011;29809;52.432;4.780;2024-01-30T12:01:07;4.40;;;1.90;;
44145;SDS011;29809;52.432;4.780;2024-01-30T12:03:32;3.55;;;1.40;;
44145;SDS011;29809;52.432;4.780;2024-01-30T12:05:58;3.85;;;1.38;;
44145;SDS011;29809;52.432;4.780;2024-01-30T12:08:23;3.33;;;1.48;;
44145;SDS011;29809;52.432;4.780;2024-01-30T12:10:55;3.40;;;1.55;;
44145;SDS011;29809;52.432;4.780;2024-01-30T12:13:20;4.22;;;1.40;;
44145;SDS011;29809;52.432;4.780;2024-01-30T12:15:45;3.13;;;1.17;;
44145;SDS011;29809;52.432;4.780;2024-01-30T12:18:10;5.30;;;1.70;;
44145;SDS011;29809;52.432;4.780;2024-01-30T12:20:36;2.97;;;1.30;;
44145;SDS011;29809;52.432;4.780;2024-01-30T12:23:01;3.63;;;1.60;;
44145;SDS011;29809;52.432;4.780;2024-01-30T12:25:26;4.35;;;1.90;;
44145;SDS011;29809;52.432;4.780;2024-01-30T12:27:52;4.22;;;1.55;;
44145;SDS011;29809;52.432;4.780;2024-01-30T12:30:18;4.97;;;1.67;;
44145;SDS011;29809;52.432;4.780;2024-01-30T12:32:44;4.20;;;1.83;;
44145;SDS011;29809;52.432;4.780;2024-01-30T12:35:10;4.35;;;1.55;;
44145;SDS011;29809;52.432;4.780;2024-01-30T12:37:36;5.38;;;1.73;;
44145;SDS011;29809;52.432;4.780;2024-01-30T12:40:01;5.35;;;2.13;;
44145;SDS011;29809;52.432;4.780;2024-01-30T12:42:27;4.88;;;1.88;;
44145;SDS011;29809;52.432;4.780;2024-01-30T12:44:52;8.20;;;2.80;;
44145;SDS011;29809;52.432;4.780;2024-01-30T12:47:18;4.95;;;2.28;;
44145;SDS011;29809;52.432;4.780;2024-01-30T12:49:43;4.28;;;1.77;;
44145;SDS011;29809;52.432;4.780;2024-01-30T12:52:09;4.82;;;1.70;;
44145;SDS011;29809;52.432;4.780;2024-01-30T12:54:35;3.13;;;1.90;;
44145;SDS011;29809;52.432;4.780;2024-01-30T12:57:00;4.22;;;1.83;;
44145;SDS011;29809;52.432;4.780;2024-01-30T12:59:25;2.88;;;1.95;;
44145;SDS011;29809;52.432;4.780;2024-01-30T13:01:50;4.80;;;1.90;;
44145;SDS011;29809;52.432;4.780;2024-01-30T13:04:16;4.70;;;1.80;;
44145;SDS011;29809;52.432;4.780;2024-01-30T13:06:41;2.92;;;1.45;;
44145;SDS011;29809;52.432;4.780;2024-01-30T13:09:07;4.20;;;1.90;;
44145;SDS011;29809;52.432;4.780;2024-01-30T13:11:32;3.70;;;1.90;;
44145;SDS011;29809;52.432;4.780;2024-01-30T13:13:57;3.45;;;1.80;;
44145;SDS011;29809;52.432;4.780;2024-01-30T13:16:23;3.53;;;1.42;;
44145;SDS011;29809;52.432;4.780;2024-01-30T13:18:48;5.15;;;2.15;;
44145;SDS011;29809;52.432;4.780;2024-01-30T13:21:13;5.68;;;1.80;;
44145;SDS011;29809;52.432;4.780;2024-01-30T13:23:38;4.55;;;1.80;;
44145;SDS011;29809;52.432;4.780;2024-01-30T13:26:04;4.22;;;1.80;;
44145;SDS011;29809;52.432;4.780;2024-01-30T13:28:29;3.67;;;1.52;;
44145;SDS011;29809;52.432;4.780;2024-01-30T13:30:54;5.25;;;1.85;;
44145;SDS011;29809;52.432;4.780;2024-01-30T13:33:19;4.75;;;1.75;;
44145;SDS011;29809;52.432;4.780;2024-01-30T13:35:45;2.50;;;1.38;;
44145;SDS011;29809;52.432;4.780;2024-01-30T13:38:10;4.57;;;1.63;;
44145;SDS011;29809;52.432;4.780;2024-01-30T13:40:35;4.18;;;2.00;;
44145;SDS011;29809;52.432;4.780;2024-01-30T13:43:01;3.78;;;1.77;;
44145;SDS011;29809;52.432;4.780;2024-01-30T13:45:26;2.67;;;1.90;;
44145;SDS011;29809;52.432;4.780;2024-01-30T13:47:52;5.35;;;1.55;;
44145;SDS011;29809;52.432;4.780;2024-01-30T13:50:17;4.82;;;1.42;;
44145;SDS011;29809;52.432;4.780;2024-01-30T13:52:43;2.65;;;1.30;;
44145;SDS011;29809;52.432;4.780;2024-01-30T13:55:08;2.58;;;1.40;;
44145;SDS011;29809;52.432;4.780;2024-01-30T13:57:34;4.30;;;1.50;;
44145;SDS011;29809;52.432;4.780;2024-01-30T14:00:01;3.85;;;1.67;;
44145;SDS011;29809;52.432;4.780;2024-01-30T14:02:26;3.33;;;1.80;;
44145;SDS011;29809;52.432;4.780;2024-01-30T14:04:51;2.90;;;1.15;;
44145;SDS011;29809;52.432;4.780;2024-01-30T14:07:16;2.17;;;1.30;;
44145;SDS011;29809;52.432;4.780;2024-01-30T14:09:43;4.10;;;2.03;;
44145;SDS011;29809;52.432;4.780;2024-01-30T14:12:09;3.83;;;1.60;;
44145;SDS011;29809;52.432;4.780;2024-01-30T14:14:34;2.42;;;1.50;;
44145;SDS011;29809;52.432;4.780;2024-01-30T14:16:59;2.78;;;1.40;;
44145;SDS011;29809;52.432;4.780;2024-01-30T14:19:25;3.97;;;1.65;;
44145;SDS011;29809;52.432;4.780;2024-01-30T14:21:50;1.35;;;1.25;;
44145;SDS011;29809;52.432;4.780;2024-01-30T14:24:15;2.63;;;1.35;;
44145;SDS011;29809;52.432;4.780;2024-01-30T14:26:40;3.00;;;1.52;;
44145;SDS011;29809;52.432;4.780;2024-01-30T14:29:06;3.63;;;1.45;;
44145;SDS011;29809;52.432;4.780;2024-01-30T14:31:31;2.63;;;1.55;;
44145;SDS011;29809;52.432;4.780;2024-01-30T14:33:56;2.95;;;1.50;;
44145;SDS011;29809;52.432;4.780;2024-01-30T14:36:21;3.35;;;1.40;;